Time;durP1;ratioP1;P1;durP2;ratioP2;P2;SDS_P1;SDS_P2;PMS_P1;PMS_P2;Temp;Humidity;BMP_temperature;BMP_pressure;BME280_temperature;BME280_humidity;BME280_pressure;Samples;Min_cycle;Max_cycle;Signal;HPM_P1;HPM_P2
2023/12/24 00:01:44;;;;;;;22.02;9.30;;;0.00;99.90;;;;;;4375789;28;659070;-84
2023/12/24 00:04:31;;;;;;;21.07;7.43;;;-0.10;99.90;;;;;;4399113;28;657901;-84
2023/12/24 00:07:19;;;;;;;14.30;6.93;;;-0.10;99.90;;;;;;4375679;28;658405;-83
2023/12/24 00:10:08;;;;;;;10.77;5.00;;;-0.10;99.90;;;;;;4394322;28;659062;-85
2023/12/24 00:12:55;;;;;;;21.53;9.33;;;0.00;99.90;;;;;;4371826;28;659106;-85
2023/12/24 00:15:43;;;;;;;20.63;9.47;;;-0.10;99.90;;;;;;4376704;28;658391;-81
2023/12/24 00:18:30;;;;;;;25.90;10.97;;;0.00;99.90;;;;;;4398181;28;658595;-84
2023/12/24 00:21:17;;;;;;;7.13;3.77;;;-0.10;99.90;;;;;;4407729;28;658746;-81
2023/12/24 00:24:05;;;;;;;22.67;10.40;;;0.00;99.90;;;;;;4416148;28;657680;-84
2023/12/24 00:26:54;;;;;;;21.38;8.45;;;-0.10;99.90;;;;;;4396494;28;659130;-81
2023/12/24 00:29:41;;;;;;;14.10;5.27;;;0.00;99.90;;;;;;4415569;28;658299;-83
2023/12/24 00:32:28;;;;;;;17.37;7.50;;;-0.10;99.90;;;;;;4392626;28;657435;-84
2023/12/24 00:35:15;;;;;;;19.00;7.33;;;0.00;99.90;;;;;;4414860;28;659007;-84
2023/12/24 00:38:03;;;;;;;16.00;6.90;;;0.00;99.90;;;;;;4397631;28;657421;-82
2023/12/24 00:40:50;;;;;;;12.83;6.43;;;0.00;99.90;;;;;;4430274;28;658962;-84
2023/12/24 00:43:39;;;;;;;11.20;5.43;;;0.00;99.90;;;;;;4425022;28;657755;-80
2023/12/24 00:46:26;;;;;;;14.50;5.57;;;-0.10;99.90;;;;;;4420352;28;657976;-84
2023/12/24 00:49:13;;;;;;;5.55;2.47;;;-0.10;99.90;;;;;;4389567;28;658811;-83
2023/12/24 00:52:01;;;;;;;8.67;4.23;;;0.00;99.90;;;;;;4416623;28;658122;-84
2023/12/24 00:54:48;;;;;;;8.60;3.57;;;0.00;99.90;;;;;;4403093;28;656676;-82
2023/12/24 00:57:37;;;;;;;7.93;4.27;;;0.00;99.90;;;;;;4434547;28;657145;-83
2023/12/24 01:00:25;;;;;;;8.60;4.23;;;0.00;99.90;;;;;;4408667;28;657326;-83
2023/12/24 01:03:13;;;;;;;7.70;2.83;;;-0.10;99.90;;;;;;4412062;28;656280;-82
2023/12/24 01:06:00;;;;;;;7.00;3.33;;;0.00;99.90;;;;;;4429900;28;658013;-83
2023/12/24 01:08:47;;;;;;;7.13;3.97;;;0.00;99.90;;;;;;4421144;28;656432;-81
2023/12/24 01:11:34;;;;;;;8.13;3.83;;;0.00;99.90;;;;;;4434757;28;656723;-83
2023/12/24 01:14:22;;;;;;;9.93;5.33;;;-0.10;99.90;;;;;;4434508;28;656050;-84
2023/12/24 01:17:10;;;;;;;9.73;4.27;;;-0.10;99.90;;;;;;4393583;28;657601;-84
2023/12/24 01:19:57;;;;;;;9.75;4.68;;;-0.10;99.90;;;;;;4393542;28;658160;-79
2023/12/24 01:22:45;;;;;;;12.60;5.77;;;-0.10;99.90;;;;;;4419080;28;657785;-84
2023/12/24 01:25:32;;;;;;;6.23;2.90;;;-0.10;99.90;;;;;;4408340;28;658719;-81
2023/12/24 01:28:20;;;;;;;10.63;5.27;;;-0.10;99.90;;;;;;4436827;28;657904;-83
2023/12/24 01:31:07;;;;;;;11.93;5.50;;;0.00;99.90;;;;;;4435093;28;657947;-83
2023/12/24 01:33:56;;;;;;;10.70;5.63;;;-0.10;99.90;;;;;;4409977;28;658879;-84
2023/12/24 01:36:43;;;;;;;10.07;4.50;;;0.00;99.90;;;;;;4412293;28;658717;-84
2023/12/24 01:39:32;;;;;;;12.27;5.33;;;-0.10;99.90;;;;;;4432288;28;658720;-83
2023/12/24 01:42:19;;;;;;;7.50;4.13;;;-0.10;99.90;;;;;;4408231;28;658861;-84
2023/12/24 01:45:07;;;;;;;6.97;3.83;;;-0.10;99.90;;;;;;4436477;28;658061;-83
2023/12/24 01:47:54;;;;;;;9.80;5.47;;;-0.10;99.90;;;;;;4410222;28;657608;-84
2023/12/24 01:50:43;;;;;;;10.50;5.93;;;-0.10;99.90;;;;;;4436255;28;657560;-84
2023/12/24 01:53:30;;;;;;;14.13;5.67;;;-0.10;99.90;;;;;;4408069;28;658977;-83
2023/12/24 01:56:17;;;;;;;8.57;4.70;;;-0.10;99.90;;;;;;4412386;28;658421;-81
2023/12/24 01:59:05;;;;;;;7.70;3.63;;;-0.20;99.90;;;;;;4436532;28;657807;-83
2023/12/24 02:01:53;;;;;;;5.17;2.00;;;-0.20;99.90;;;;;;4436341;28;657255;-84
2023/12/24 02:04:40;;;;;;;5.53;2.93;;;-0.20;99.90;;;;;;4412948;28;657716;-83
2023/12/24 02:07:29;;;;;;;7.20;3.70;;;-0.20;99.90;;;;;;4430536;28;657498;-82
2023/12/24 02:10:16;;;;;;;9.27;4.47;;;-0.20;99.90;;;;;;4436578;28;657602;-83
2023/12/24 02:13:04;;;;;;;6.07;2.77;;;-0.30;99.90;;;;;;4412913;28;658152;-84
2023/12/24 02:15:52;;;;;;;6.33;2.43;;;-0.30;99.90;;;;;;4431980;28;658179;-84
2023/12/24 02:18:39;;;;;;;7.00;2.97;;;-0.30;99.90;;;;;;4412407;28;657928;-83
2023/12/24 02:21:27;;;;;;;5.23;3.00;;;-0.30;99.90;;;;;;4435482;28;657755;-84
2023/12/24 02:24:15;;;;;;;7.57;3.70;;;-0.40;99.90;;;;;;4412465;28;658272;-83
2023/12/24 02:27:06;;;;;;;7.17;3.10;;;-0.40;99.90;;;;;;4422334;28;657881;-81
2023/12/24 02:29:56;;;;;;;5.63;3.07;;;-0.40;99.90;;;;;;4412875;28;657721;-83
2023/12/24 02:32:43;;;;;;;5.67;2.60;;;-0.40;99.90;;;;;;4412034;28;657431;-83
2023/12/24 02:35:33;;;;;;;6.07;2.03;;;-0.40;99.90;;;;;;4426419;28;658404;-82
2023/12/24 02:38:21;;;;;;;3.30;1.37;;;-0.40;99.90;;;;;;4405765;28;658441;-84
2023/12/24 02:41:09;;;;;;;2.50;1.67;;;-0.40;99.90;;;;;;4412813;28;657379;-83
2023/12/24 02:43:56;;;;;;;5.90;3.10;;;-0.40;99.90;;;;;;4427294;28;658164;-84
2023/12/24 02:46:43;;;;;;;8.60;2.40;;;-0.40;99.90;;;;;;4393112;28;657603;-84
2023/12/24 02:49:30;;;;;;;6.17;2.70;;;-0.40;99.90;;;;;;4403328;28;658223;-85
2023/12/24 02:52:17;;;;;;;1.90;1.00;;;-0.40;99.90;;;;;;4402573;28;657180;-80
2023/12/24 02:55:06;;;;;;;0.70;0.67;;;-0.40;99.90;;;;;;4432206;28;658430;-84
2023/12/24 02:57:53;;;;;;;5.60;3.10;;;-0.40;99.90;;;;;;4412626;28;657256;-84
2023/12/24 03:00:41;;;;;;;5.57;2.40;;;-0.50;99.90;;;;;;4431398;28;658077;-85
2023/12/24 03:03:28;;;;;;;5.33;2.13;;;-0.50;99.90;;;;;;4412803;28;657680;-83
2023/12/24 03:06:15;;;;;;;7.53;2.57;;;-0.50;99.90;;;;;;4435335;28;658198;-84
2023/12/24 03:09:03;;;;;;;4.45;1.90;;;-0.50;99.90;;;;;;4415102;28;657600;-81
2023/12/24 03:11:51;;;;;;;3.13;1.87;;;-0.50;99.90;;;;;;4430836;28;658783;-85
2023/12/24 03:14:38;;;;;;;4.45;2.30;;;-0.50;99.90;;;;;;4412664;28;657318;-83
2023/12/24 03:17:26;;;;;;;4.27;1.87;;;-0.50;99.90;;;;;;4435159;28;658175;-83
2023/12/24 03:20:13;;;;;;;4.00;1.53;;;-0.50;99.90;;;;;;4412346;28;658130;-83
2023/12/24 03:23:00;;;;;;;4.93;2.00;;;-0.50;99.90;;;;;;4430553;28;658715;-84
2023/12/24 03:25:47;;;;;;;3.07;1.70;;;-0.50;99.90;;;;;;4421118;28;658027;-81
2023/12/24 03:28:36;;;;;;;2.70;1.53;;;-0.50;99.90;;;;;;4435354;28;657783;-83
2023/12/24 03:31:25;;;;;;;3.87;1.80;;;-0.50;99.90;;;;;;4412156;28;657682;-84
2023/12/24 03:34:13;;;;;;;4.40;1.67;;;-0.50;99.90;;;;;;4411328;28;657305;-82
2023/12/24 03:37:01;;;;;;;5.50;1.40;;;-0.50;99.90;;;;;;4430824;28;657646;-83
2023/12/24 03:39:48;;;;;;;5.53;2.20;;;-0.50;99.90;;;;;;4412000;28;657700;-83
2023/12/24 03:42:35;;;;;;;1.43;0.97;;;-0.60;99.90;;;;;;4434662;28;657979;-82
2023/12/24 03:45:24;;;;;;;4.82;2.28;;;-0.50;99.90;;;;;;4398024;28;657885;-80
2023/12/24 03:48:11;;;;;;;2.30;1.10;;;-0.50;99.90;;;;;;4417017;28;657571;-84
2023/12/24 03:50:59;;;;;;;3.93;1.77;;;-0.60;99.90;;;;;;4390682;28;657878;-85
2023/12/24 03:53:46;;;;;;;4.60;1.83;;;-0.60;99.90;;;;;;4414008;28;658568;-85
2023/12/24 03:56:33;;;;;;;4.07;1.70;;;-0.50;99.90;;;;;;4411693;28;657815;-85
2023/12/24 03:59:20;;;;;;;6.53;2.07;;;-0.60;99.90;;;;;;4432939;28;657859;-85
2023/12/24 04:02:10;;;;;;;5.17;1.33;;;-0.60;99.90;;;;;;4411995;28;657518;-80
2023/12/24 04:04:57;;;;;;;3.87;1.90;;;-0.60;99.90;;;;;;4429305;28;657828;-84
2023/12/24 04:07:45;;;;;;;3.80;1.93;;;-0.60;99.90;;;;;;4434672;28;657202;-84
2023/12/24 04:10:32;;;;;;;4.93;1.80;;;-0.60;99.90;;;;;;4434173;28;657136;-84
2023/12/24 04:13:19;;;;;;;2.07;0.70;;;-0.60;99.90;;;;;;4406443;28;657944;-85
2023/12/24 04:16:06;;;;;;;4.37;0.97;;;-0.60;99.90;;;;;;4432451;28;657838;-84
2023/12/24 04:18:55;;;;;;;4.37;1.43;;;-0.60;99.90;;;;;;4410417;28;657505;-85
2023/12/24 04:21:42;;;;;;;1.37;0.53;;;-0.60;99.90;;;;;;4420184;28;657638;-83
2023/12/24 04:24:30;;;;;;;4.33;0.97;;;-0.60;99.90;;;;;;4433328;28;657769;-85
2023/12/24 04:27:17;;;;;;;5.37;1.40;;;-0.60;99.90;;;;;;4411266;28;657599;-80
2023/12/24 04:30:06;;;;;;;3.50;1.20;;;-0.60;99.90;;;;;;4434599;28;657753;-85
2023/12/24 04:32:53;;;;;;;3.50;1.40;;;-0.60;99.90;;;;;;4410806;28;657606;-85
2023/12/24 04:35:44;;;;;;;2.83;1.37;;;-0.60;99.90;;;;;;4433772;28;658242;-83
2023/12/24 04:38:32;;;;;;;6.13;1.80;;;-0.60;99.90;;;;;;4411426;28;657658;-84
2023/12/24 04:41:19;;;;;;;4.70;1.57;;;-0.60;99.90;;;;;;4411650;28;657962;-85
2023/12/24 04:44:06;;;;;;;4.90;1.20;;;-0.60;99.90;;;;;;4429791;28;657990;-85
2023/12/24 04:46:53;;;;;;;0.73;0.37;;;-0.60;99.90;;;;;;4410811;28;658114;-84
2023/12/24 04:49:41;;;;;;;3.60;1.70;;;-0.60;99.90;;;;;;4432504;28;658280;-84
2023/12/24 04:52:35;;;;;;;2.70;1.67;;;-0.60;99.90;;;;;;4410592;28;657518;-85
2023/12/24 04:55:22;;;;;;;6.40;1.80;;;-0.60;99.90;;;;;;4400185;28;657842;-82
2023/12/24 04:58:10;;;;;;;2.27;1.20;;;-0.60;99.90;;;;;;4433677;28;657960;-85
2023/12/24 05:00:58;;;;;;;8.23;1.73;;;-0.60;99.90;;;;;;4428960;28;658041;-81
2023/12/24 05:03:45;;;;;;;3.83;1.73;;;-0.60;99.90;;;;;;4430415;28;659133;-86
2023/12/24 05:06:32;;;;;;;3.57;1.47;;;-0.60;99.90;;;;;;4422018;28;657636;-82
2023/12/24 05:09:21;;;;;;;3.70;1.90;;;-0.50;99.90;;;;;;4433352;28;657892;-85
2023/12/24 05:12:09;;;;;;;3.07;1.87;;;-0.50;99.90;;;;;;4409482;28;657841;-85
2023/12/24 05:14:56;;;;;;;3.50;1.77;;;-0.60;99.90;;;;;;4433085;28;657640;-79
2023/12/24 05:17:43;;;;;;;5.30;1.50;;;-0.60;99.90;;;;;;4410490;28;657472;-84
2023/12/24 05:20:31;;;;;;;2.50;0.77;;;-0.60;99.90;;;;;;4433506;28;658185;-86
2023/12/24 05:23:20;;;;;;;2.50;1.17;;;-0.50;99.90;;;;;;4410942;28;657164;-82
2023/12/24 05:26:09;;;;;;;5.60;2.08;;;-0.50;99.90;;;;;;4415139;28;658255;-83
2023/12/24 05:28:56;;;;;;;3.53;2.00;;;-0.50;99.90;;;;;;4434042;28;657389;-85
2023/12/24 05:31:43;;;;;;;3.53;1.80;;;-0.50;99.90;;;;;;4410447;28;657595;-85
2023/12/24 05:34:30;;;;;;;4.30;1.57;;;-0.50;99.90;;;;;;4433432;28;658018;-85
2023/12/24 05:37:18;;;;;;;3.93;2.43;;;-0.50;99.90;;;;;;4410221;28;657554;-82
2023/12/24 05:40:06;;;;;;;9.90;2.80;;;-0.50;99.90;;;;;;4430056;28;658160;-86
2023/12/24 05:42:54;;;;;;;6.73;3.00;;;-0.50;99.90;;;;;;4410125;28;658043;-85
2023/12/24 05:45:41;;;;;;;8.17;3.20;;;-0.50;99.90;;;;;;4398134;28;657803;-85
2023/12/24 05:48:29;;;;;;;7.80;3.17;;;-0.60;99.90;;;;;;4372457;28;658139;-85
2023/12/24 05:51:16;;;;;;;2.37;0.70;;;-0.50;99.90;;;;;;4394833;28;657710;-85
2023/12/24 05:54:03;;;;;;;8.70;3.23;;;-0.40;99.90;;;;;;4375081;28;657699;-85
2023/12/24 05:56:50;;;;;;;6.77;3.30;;;-0.50;99.90;;;;;;4398002;28;658688;-85
2023/12/24 05:59:39;;;;;;;2.40;1.23;;;-0.50;99.90;;;;;;4375930;28;657655;-82
2023/12/24 06:02:26;;;;;;;7.10;3.10;;;-0.50;99.90;;;;;;4398993;28;657183;-85
2023/12/24 06:05:14;;;;;;;7.03;3.10;;;-0.50;99.90;;;;;;4373299;28;657698;-85
2023/12/24 06:08:01;;;;;;;5.87;2.87;;;-0.50;99.90;;;;;;4397233;28;658504;-84
2023/12/24 06:10:48;;;;;;;6.43;2.83;;;-0.50;99.90;;;;;;4378465;28;658140;-85
2023/12/24 06:13:35;;;;;;;7.33;3.37;;;-0.50;99.90;;;;;;4400521;28;657901;-85
2023/12/24 06:16:24;;;;;;;7.78;3.38;;;-0.50;99.90;;;;;;4378356;28;657568;-81
2023/12/24 06:19:11;;;;;;;6.53;3.43;;;-0.50;99.90;;;;;;4401230;28;657345;-86
2023/12/24 06:22:00;;;;;;;6.10;3.77;;;-0.50;99.90;;;;;;4378470;28;657953;-85
2023/12/24 06:24:47;;;;;;;5.77;3.10;;;-0.50;99.90;;;;;;4390144;28;658084;-82
2023/12/24 06:27:35;;;;;;;7.27;3.43;;;-0.40;99.90;;;;;;4401298;28;657622;-85
2023/12/24 06:30:23;;;;;;;7.70;3.87;;;-0.40;99.90;;;;;;4372734;28;658051;-85
2023/12/24 06:33:11;;;;;;;8.57;4.20;;;-0.40;99.90;;;;;;4394393;28;658293;-85
2023/12/24 06:35:58;;;;;;;7.95;4.50;;;-0.30;99.90;;;;;;4378486;28;657917;-86
2023/12/24 06:38:46;;;;;;;9.27;5.50;;;-0.30;99.90;;;;;;4400337;28;658697;-86
2023/12/24 06:41:33;;;;;;;10.87;6.07;;;-0.50;99.90;;;;;;4378011;28;657485;-85
2023/12/24 06:44:20;;;;;;;13.03;6.00;;;-0.40;99.90;;;;;;4419746;28;659597;-85
2023/12/24 06:47:07;;;;;;;12.30;6.13;;;-0.50;99.90;;;;;;4415091;28;658766;-83
2023/12/24 06:49:56;;;;;;;11.50;5.43;;;-0.40;99.90;;;;;;4402263;28;659018;-86
2023/12/24 06:52:43;;;;;;;13.43;6.82;;;-0.30;99.90;;;;;;4373238;28;659017;-86
2023/12/24 06:55:30;;;;;;;15.53;6.50;;;-0.40;99.90;;;;;;4422066;28;659737;-84
2023/12/24 06:58:18;;;;;;;12.33;6.47;;;-0.40;99.90;;;;;;4411627;28;658621;-82
2023/12/24 07:01:05;;;;;;;19.40;8.77;;;-0.30;99.90;;;;;;4430367;28;660206;-85
2023/12/24 07:03:52;;;;;;;16.70;7.88;;;-0.40;99.90;;;;;;4415895;28;658573;-82
2023/12/24 07:06:41;;;;;;;17.07;8.17;;;-0.40;99.90;;;;;;4430564;28;659694;-86
2023/12/24 07:09:28;;;;;;;17.13;6.17;;;-0.40;99.90;;;;;;4410037;28;658312;-85
2023/12/24 07:12:15;;;;;;;20.50;7.10;;;-0.30;99.90;;;;;;4434156;28;659077;-85
2023/12/24 07:15:03;;;;;;;20.00;8.33;;;-0.40;99.90;;;;;;4411383;28;659700;-83
2023/12/24 07:17:50;;;;;;;22.53;9.30;;;-0.40;99.90;;;;;;4432378;28;658621;-85
2023/12/24 07:20:37;;;;;;;15.13;7.47;;;-0.40;99.90;;;;;;4410972;28;658851;-81
2023/12/24 07:23:26;;;;;;;25.60;12.50;;;-0.40;99.90;;;;;;4431158;28;658777;-85
2023/12/24 07:26:13;;;;;;;20.23;8.10;;;-0.40;99.90;;;;;;4409668;28;659386;-85
2023/12/24 07:29:01;;;;;;;31.27;12.17;;;-0.30;99.90;;;;;;4430591;28;659518;-85
2023/12/24 07:31:48;;;;;;;26.93;11.87;;;-0.40;99.90;;;;;;4409389;28;659627;-84
2023/12/24 07:34:36;;;;;;;19.73;9.60;;;-0.40;99.90;;;;;;4432003;28;660376;-85
2023/12/24 07:37:23;;;;;;;4.30;2.43;;;-0.30;99.90;;;;;;4410926;28;659042;-83
2023/12/24 07:40:12;;;;;;;15.67;7.97;;;-0.30;99.90;;;;;;4430079;28;658082;-85
2023/12/24 07:42:59;;;;;;;17.67;8.53;;;-0.30;99.90;;;;;;4410715;28;659917;-85
2023/12/24 07:45:46;;;;;;;22.17;10.10;;;-0.30;99.90;;;;;;4429484;28;658788;-85
2023/12/24 07:48:34;;;;;;;20.00;10.70;;;-0.20;99.90;;;;;;4409137;28;660480;-84
2023/12/24 07:51:21;;;;;;;22.67;10.07;;;-0.20;99.90;;;;;;4428411;28;659590;-85
2023/12/24 07:54:08;;;;;;;20.77;9.53;;;-0.20;99.90;;;;;;4409692;28;659954;-84
2023/12/24 07:56:57;;;;;;;17.97;8.83;;;-0.10;99.90;;;;;;4431519;28;658611;-85
2023/12/24 07:59:44;;;;;;;18.50;8.83;;;0.00;99.90;;;;;;4410707;28;658863;-85
2023/12/24 08:02:31;;;;;;;14.17;7.53;;;0.10;99.90;;;;;;4434459;28;657468;-85
2023/12/24 08:05:18;;;;;;;15.20;8.03;;;0.10;99.90;;;;;;4414962;28;657790;-85
2023/12/24 08:08:06;;;;;;;14.87;7.93;;;0.20;99.90;;;;;;4452237;28;657821;-86
2023/12/24 08:10:53;;;;;;;13.43;7.10;;;0.20;99.90;;;;;;4428534;28;658404;-85
2023/12/24 08:13:42;;;;;;;11.73;7.03;;;0.30;99.90;;;;;;4448300;28;657434;-86
2023/12/24 08:16:31;;;;;;;16.27;7.10;;;0.50;99.90;;;;;;4429131;28;657629;-85
2023/12/24 08:19:19;;;;;;;11.63;6.37;;;0.50;99.90;;;;;;4425940;28;657491;-86
2023/12/24 08:22:06;;;;;;;18.00;8.87;;;0.60;99.90;;;;;;4448692;28;657919;-85
2023/12/24 08:24:53;;;;;;;18.10;9.40;;;0.50;99.90;;;;;;4428835;28;657967;-84
2023/12/24 08:27:40;;;;;;;21.33;10.30;;;0.70;99.90;;;;;;4451331;28;657755;-86
2023/12/24 08:30:30;;;;;;;19.50;9.20;;;0.70;99.90;;;;;;4427664;28;658585;-85
2023/12/24 08:33:17;;;;;;;14.77;7.80;;;0.80;99.90;;;;;;4443174;28;658064;-80
2023/12/24 08:36:06;;;;;;;14.40;7.97;;;0.80;99.90;;;;;;4452397;28;658028;-84
2023/12/24 08:38:54;;;;;;;17.63;8.70;;;0.80;99.90;;;;;;4429439;28;658434;-83
2023/12/24 08:41:41;;;;;;;16.17;9.13;;;0.70;99.90;;;;;;4448338;28;657603;-85
2023/12/24 08:44:28;;;;;;;14.00;8.00;;;0.80;99.90;;;;;;4417535;28;657486;-84
2023/12/24 08:47:17;;;;;;;17.20;9.70;;;0.80;99.90;;;;;;4433481;28;658425;-86
2023/12/24 08:50:04;;;;;;;17.17;9.00;;;0.80;99.90;;;;;;4395866;28;657967;-86
2023/12/24 08:52:51;;;;;;;13.52;7.30;;;0.90;99.90;;;;;;4416631;28;657601;-86
2023/12/24 08:55:39;;;;;;;16.03;8.83;;;0.90;99.90;;;;;;4404534;28;657671;-86
2023/12/24 08:58:26;;;;;;;20.03;11.23;;;1.00;99.90;;;;;;4429974;28;657926;-86
2023/12/24 09:01:14;;;;;;;22.90;11.03;;;0.90;99.90;;;;;;4400696;28;659438;-83
2023/12/24 09:04:03;;;;;;;27.00;13.00;;;1.00;99.90;;;;;;4428724;28;659090;-85
2023/12/24 09:06:50;;;;;;;28.67;13.53;;;1.00;99.90;;;;;;4405752;28;659156;-84
2023/12/24 09:09:37;;;;;;;52.53;23.40;;;1.00;99.90;;;;;;4411686;28;659038;-82
2023/12/24 09:12:25;;;;;;;27.00;13.90;;;1.00;99.90;;;;;;4432567;28;658741;-84
2023/12/24 09:15:12;;;;;;;35.60;15.57;;;1.00;99.90;;;;;;4428284;28;658746;-81
2023/12/24 09:18:00;;;;;;;32.17;15.00;;;1.00;99.90;;;;;;4432852;28;658727;-84
2023/12/24 09:20:49;;;;;;;51.60;22.33;;;0.90;99.90;;;;;;4433128;28;658850;-84
2023/12/24 09:23:36;;;;;;;48.23;21.60;;;0.90;99.90;;;;;;4409877;28;659409;-85
2023/12/24 09:26:23;;;;;;;37.60;17.77;;;0.90;99.90;;;;;;4409397;28;658546;-84
2023/12/24 09:29:12;;;;;;;30.40;14.93;;;1.00;99.90;;;;;;4431626;28;658994;-84
2023/12/24 09:31:59;;;;;;;26.60;12.27;;;0.90;99.90;;;;;;4406037;28;659251;-84
2023/12/24 09:34:46;;;;;;;24.23;11.40;;;0.90;99.90;;;;;;4432518;28;658992;-85
2023/12/24 09:37:35;;;;;;;27.20;12.97;;;0.90;99.90;;;;;;4410263;28;658883;-84
2023/12/24 09:40:22;;;;;;;23.73;11.70;;;0.70;99.90;;;;;;4425574;28;658268;-79
2023/12/24 09:43:09;;;;;;;23.40;11.40;;;0.80;99.90;;;;;;4434986;28;658933;-85
2023/12/24 09:45:57;;;;;;;21.13;9.93;;;0.80;99.90;;;;;;4435161;28;658501;-84
2023/12/24 09:48:44;;;;;;;15.60;7.87;;;0.80;99.90;;;;;;4414617;28;657452;-84
2023/12/24 09:51:31;;;;;;;43.90;18.10;;;0.70;99.90;;;;;;4433303;28;657499;-85
2023/12/24 09:54:20;;;;;;;41.72;18.00;;;0.60;99.90;;;;;;4409472;28;659129;-83
2023/12/24 09:57:08;;;;;;;54.50;21.80;;;0.80;99.90;;;;;;4423765;28;658448;-80
2023/12/24 09:59:55;;;;;;;39.60;16.80;;;0.90;99.90;;;;;;4431317;28;658886;-84
2023/12/24 10:02:43;;;;;;;35.77;15.63;;;0.90;99.90;;;;;;4426080;28;658990;-82
2023/12/24 10:05:30;;;;;;;33.87;15.27;;;0.70;99.90;;;;;;4431964;28;659303;-85
2023/12/24 10:08:18;;;;;;;29.20;14.17;;;0.80;99.90;;;;;;4425438;28;658728;-80
2023/12/24 10:11:16;;;;;;;23.33;11.53;;;0.90;99.90;;;;;;4424921;28;659714;-85
2023/12/24 10:14:04;;;;;;;26.53;11.90;;;1.00;99.90;;;;;;4411122;28;658357;-86
2023/12/24 10:16:51;;;;;;;39.70;14.97;;;1.00;99.90;;;;;;4431333;28;658475;-86
2023/12/24 10:19:38;;;;;;;37.33;16.33;;;1.00;99.90;;;;;;4412690;28;658877;-84
2023/12/24 10:22:27;;;;;;;42.37;18.30;;;1.00;99.90;;;;;;4434786;28;657762;-86
2023/12/24 10:25:16;;;;;;;38.83;17.10;;;1.00;99.90;;;;;;4402660;28;659302;-85
2023/12/24 10:28:06;;;;;;;37.07;16.17;;;1.00;99.90;;;;;;4412457;28;658278;-85
2023/12/24 10:30:58;;;;;;;32.63;14.77;;;1.00;99.90;;;;;;4408534;28;658773;-85
2023/12/24 10:33:45;;;;;;;36.83;16.73;;;1.00;99.90;;;;;;4410835;28;659401;-84
2023/12/24 10:36:32;;;;;;;34.67;15.90;;;1.00;99.90;;;;;;4425469;28;659187;-81
2023/12/24 10:39:24;;;;;;;39.53;17.97;;;1.10;99.90;;;;;;4434885;28;659015;-84
2023/12/24 10:42:11;;;;;;;30.77;14.30;;;1.10;99.90;;;;;;4407584;28;659239;-83
2023/12/24 10:45:00;;;;;;;28.10;14.37;;;1.10;99.90;;;;;;4406379;28;658954;-83
2023/12/24 10:47:48;;;;;;;29.43;14.33;;;1.20;99.90;;;;;;4423279;28;659005;-79
2023/12/24 10:50:35;;;;;;;30.17;14.63;;;1.20;99.90;;;;;;4427316;28;659210;-83
2023/12/24 10:53:23;;;;;;;28.37;13.77;;;1.20;99.90;;;;;;4411243;28;658573;-79
2023/12/24 10:56:11;;;;;;;26.97;12.60;;;1.30;99.90;;;;;;4412967;28;659494;-83
2023/12/24 10:59:00;;;;;;;26.93;13.43;;;1.30;99.90;;;;;;4392016;28;658819;-82
2023/12/24 11:01:49;;;;;;;30.10;12.63;;;1.20;99.90;;;;;;4395277;28;659195;-80
2023/12/24 11:04:44;;;;;;;26.53;12.03;;;1.20;99.90;;;;;;4413004;28;659026;-82
2023/12/24 11:07:50;;;;;;;31.57;12.57;;;1.30;99.90;;;;;;4394321;28;658558;-82
2023/12/24 11:10:39;;;;;;;30.13;12.73;;;1.40;99.90;;;;;;4411259;28;658397;-79
2023/12/24 11:13:48;;;;;;;29.50;12.83;;;1.40;99.90;;;;;;4416913;28;658962;-82
2023/12/24 11:16:41;;;;;;;33.10;14.90;;;1.50;99.90;;;;;;4387883;28;658894;-82
2023/12/24 11:19:30;;;;;;;29.23;12.80;;;1.50;99.90;;;;;;4394291;28;659074;-82
2023/12/24 11:22:18;;;;;;;28.90;14.37;;;1.40;99.90;;;;;;4394260;28;658501;-80
2023/12/24 11:25:17;;;;;;;28.40;13.07;;;1.50;99.90;;;;;;4412386;28;659971;-82
2023/12/24 11:28:04;;;;;;;15.17;7.63;;;1.60;99.90;;;;;;4370542;28;658898;-82
2023/12/24 11:31:05;;;;;;;32.27;14.67;;;1.60;99.90;;;;;;4417873;28;657632;-80
2023/12/24 11:33:54;;;;;;;38.53;17.57;;;1.70;99.90;;;;;;4412477;28;658918;-80
2023/12/24 11:36:42;;;;;;;41.97;18.80;;;1.60;99.90;;;;;;4415484;28;658398;-81
2023/12/24 11:39:33;;;;;;;40.27;17.73;;;1.70;99.90;;;;;;4389327;28;658964;-81
2023/12/24 11:42:20;;;;;;;39.83;18.43;;;1.70;99.90;;;;;;4392719;28;658458;-81
2023/12/24 11:45:08;;;;;;;42.33;18.63;;;1.70;99.90;;;;;;4407588;28;659193;-79
2023/12/24 11:47:55;;;;;;;44.57;20.13;;;1.70;99.90;;;;;;4428031;28;659126;-80
2023/12/24 11:50:42;;;;;;;48.13;20.92;;;1.80;99.90;;;;;;4397964;28;659015;-78
2023/12/24 11:53:32;;;;;;;42.10;19.83;;;1.80;99.90;;;;;;4415738;28;659329;-79
2023/12/24 11:56:20;;;;;;;39.43;17.37;;;1.70;99.90;;;;;;4390741;28;658973;-79
2023/12/24 11:59:07;;;;;;;58.70;22.70;;;1.70;99.90;;;;;;4397294;28;658882;-77
2023/12/24 12:02:03;;;;;;;63.97;24.80;;;1.70;99.90;;;;;;4416168;28;659431;-79
2023/12/24 12:04:50;;;;;;;56.67;20.90;;;1.80;99.90;;;;;;4388437;28;658912;-79
2023/12/24 12:07:38;;;;;;;65.83;26.83;;;1.80;99.90;;;;;;4400339;28;658812;-76
2023/12/24 12:10:26;;;;;;;71.77;24.63;;;1.80;99.90;;;;;;4411529;28;659576;-79
2023/12/24 12:13:13;;;;;;;100.27;29.63;;;1.90;99.90;;;;;;4376051;28;658780;-79
2023/12/24 12:16:01;;;;;;;67.30;21.75;;;1.90;99.90;;;;;;4397933;28;660300;-80
2023/12/24 12:18:49;;;;;;;120.10;32.47;;;2.00;99.90;;;;;;4372138;28;659137;-80
2023/12/24 12:21:36;;;;;;;42.57;14.07;;;2.00;99.90;;;;;;4394171;28;659900;-79
2023/12/24 12:24:26;;;;;;;83.17;26.37;;;2.00;99.90;;;;;;4376419;28;658315;-78
2023/12/24 12:27:15;;;;;;;67.80;20.90;;;2.10;99.90;;;;;;4375903;28;659085;-78
2023/12/24 12:30:02;;;;;;;57.77;22.17;;;2.20;99.90;;;;;;4398908;28;658224;-78
2023/12/24 12:32:49;;;;;;;78.00;15.00;;;2.20;99.90;;;;;;4376750;28;659214;-79
2023/12/24 12:35:36;;;;;;;55.53;21.10;;;2.30;99.90;;;;;;4392828;28;658788;-79
2023/12/24 12:38:23;;;;;;;36.63;12.13;;;2.40;99.90;;;;;;4376086;28;659166;-81
2023/12/24 12:41:10;;;;;;;36.40;9.90;;;2.40;99.90;;;;;;4399100;28;659779;-80
2023/12/24 12:43:59;;;;;;;66.83;17.37;;;2.50;99.90;;;;;;4385089;28;657958;-79
2023/12/24 12:46:47;;;;;;;45.17;12.77;;;2.60;99.90;;;;;;4415368;28;659215;-79
2023/12/24 12:49:35;;;;;;;66.77;15.13;;;2.60;99.90;;;;;;4390289;28;658969;-79
2023/12/24 12:52:22;;;;;;;141.80;24.47;;;2.60;99.90;;;;;;4416662;28;657762;-78
2023/12/24 12:55:12;;;;;;;88.93;19.67;;;2.70;99.90;;;;;;4415543;28;659729;-79
2023/12/24 12:57:59;;;;;;;91.83;23.80;;;2.80;99.90;;;;;;4393208;28;659511;-79
2023/12/24 13:00:48;;;;;;;139.00;27.07;;;2.80;99.90;;;;;;4411834;28;659016;-79
2023/12/24 13:03:37;;;;;;;94.77;23.37;;;2.90;99.90;;;;;;4388584;28;659662;-79
2023/12/24 13:06:24;;;;;;;123.13;26.40;;;2.80;99.90;;;;;;4393668;28;659473;-79
2023/12/24 13:09:12;;;;;;;63.63;18.38;;;2.90;99.90;;;;;;4410355;28;659728;-79
2023/12/24 13:12:06;;;;;;;63.40;21.07;;;2.90;99.90;;;;;;4393966;28;658418;-79
2023/12/24 13:14:56;;;;;;;61.60;21.77;;;3.10;99.90;;;;;;4369736;28;658720;-78
2023/12/24 13:17:46;;;;;;;51.50;17.02;;;3.20;99.90;;;;;;4411054;28;658897;-79
2023/12/24 13:20:33;;;;;;;72.27;22.53;;;3.20;99.90;;;;;;4413071;28;659356;-79
2023/12/24 13:23:21;;;;;;;50.23;17.73;;;3.30;99.90;;;;;;4436318;28;658823;-80
2023/12/24 13:26:08;;;;;;;23.30;9.95;;;3.40;99.90;;;;;;4413065;28;658945;-79
2023/12/24 13:28:58;;;;;;;42.70;15.27;;;3.50;99.90;;;;;;4435188;28;657822;-82
2023/12/24 13:31:45;;;;;;;28.07;12.80;;;3.50;99.90;;;;;;4413227;28;658941;-83
2023/12/24 13:34:34;;;;;;;22.53;9.27;;;3.70;99.90;;;;;;4412594;28;659033;-80
2023/12/24 13:37:21;;;;;;;25.70;11.50;;;3.70;99.90;;;;;;4436126;28;657505;-83
2023/12/24 13:40:09;;;;;;;18.70;8.23;;;3.90;99.90;;;;;;4412839;28;658981;-84
2023/12/24 13:42:56;;;;;;;8.80;4.63;;;3.90;99.90;;;;;;4436807;28;657649;-83
2023/12/24 13:45:43;;;;;;;20.90;10.57;;;3.90;99.90;;;;;;4398331;28;657174;-81
2023/12/24 13:48:30;;;;;;;11.70;6.93;;;4.00;99.90;;;;;;4417352;28;659519;-83
2023/12/24 13:51:19;;;;;;;10.40;5.97;;;4.00;99.90;;;;;;4396306;28;658041;-80
2023/12/24 13:54:06;;;;;;;15.85;9.73;;;4.10;99.90;;;;;;4418963;28;657841;-81
2023/12/24 13:56:53;;;;;;;16.77;10.33;;;4.10;99.90;;;;;;4413720;28;658053;-80
2023/12/24 13:59:43;;;;;;;14.73;8.40;;;4.20;99.90;;;;;;4436148;28;658791;-80
2023/12/24 14:02:31;;;;;;;8.43;2.83;;;4.20;99.90;;;;;;4409863;28;658098;-79
2023/12/24 14:05:18;;;;;;;13.23;8.23;;;4.30;99.90;;;;;;4414916;28;656540;-78
2023/12/24 14:08:07;;;;;;;13.70;8.27;;;4.20;99.90;;;;;;4432903;28;658719;-79
2023/12/24 14:10:54;;;;;;;6.70;2.77;;;4.30;99.90;;;;;;4409524;28;658116;-78
2023/12/24 14:13:41;;;;;;;19.43;10.27;;;4.20;99.90;;;;;;4433554;28;656264;-78
2023/12/24 14:16:30;;;;;;;11.90;6.20;;;4.20;99.90;;;;;;4410201;28;658638;-78
2023/12/24 14:19:18;;;;;;;4.33;2.57;;;4.30;99.90;;;;;;4420436;28;657987;-77